sensor_id;sensor_type;location;lat;lon;timestamp;P1;durP1;ratioP1;P2;durP2;ratioP2
17993;SDS011;9122;48.406;9.984;2023-04-30T00:02:30;4.03;;;3.70;;
17993;SDS011;9122;48.406;9.984;2023-04-30T00:05:14;4.57;;;4.17;;
17993;SDS011;9122;48.406;9.984;2023-04-30T00:07:58;4.00;;;3.70;;
17993;SDS011;9122;48.406;9.984;2023-04-30T00:10:43;4.17;;;3.87;;
17993;SDS011;9122;48.406;9.984;2023-04-30T00:13:28;4.37;;;4.00;;
17993;SDS011;9122;48.406;9.984;2023-04-30T00:16:12;4.00;;;3.60;;
17993;SDS011;9122;48.406;9.984;2023-04-30T00:18:56;4.47;;;4.10;;
17993;SDS011;9122;48.406;9.984;2023-04-30T00:21:41;4.30;;;4.00;;
17993;SDS011;9122;48.406;9.984;2023-04-30T00:24:26;4.73;;;4.33;;
17993;SDS011;9122;48.406;9.984;2023-04-30T00:27:11;4.33;;;3.93;;
17993;SDS011;9122;48.406;9.984;2023-04-30T00:29:55;4.67;;;4.20;;
17993;SDS011;9122;48.406;9.984;2023-04-30T00:32:40;4.70;;;4.30;;
17993;SDS011;9122;48.406;9.984;2023-04-30T00:35:25;4.30;;;4.00;;
17993;SDS011;9122;48.406;9.984;2023-04-30T00:38:09;4.40;;;4.10;;
17993;SDS011;9122;48.406;9.984;2023-04-30T00:40:54;4.53;;;4.23;;
17993;SDS011;9122;48.406;9.984;2023-04-30T00:43:38;5.43;;;5.03;;
17993;SDS011;9122;48.406;9.984;2023-04-30T00:46:22;5.03;;;4.63;;
17993;SDS011;9122;48.406;9.984;2023-04-30T00:49:07;4.80;;;4.40;;
17993;SDS011;9122;48.406;9.984;2023-04-30T00:51:51;4.73;;;4.33;;
17993;SDS011;9122;48.406;9.984;2023-04-30T00:54:37;4.80;;;4.40;;
17993;SDS011;9122;48.406;9.984;2023-04-30T00:57:21;6.20;;;4.63;;
17993;SDS011;9122;48.406;9.984;2023-04-30T01:00:08;5.00;;;4.60;;
17993;SDS011;9122;48.406;9.984;2023-04-30T01:02:54;4.60;;;4.20;;
17993;SDS011;9122;48.406;9.984;2023-04-30T01:05:39;4.37;;;3.97;;
17993;SDS011;9122;48.406;9.984;2023-04-30T01:08:24;4.57;;;4.17;;
17993;SDS011;9122;48.406;9.984;2023-04-30T01:14:13;5.53;;;5.03;;
17993;SDS011;9122;48.406;9.984;2023-04-30T01:19:59;5.47;;;4.97;;
17993;SDS011;9122;48.406;9.984;2023-04-30T01:28:36;5.43;;;4.77;;
17993;SDS011;9122;48.406;9.984;2023-04-30T01:31:22;5.63;;;5.20;;
17993;SDS011;9122;48.406;9.984;2023-04-30T01:34:07;4.97;;;4.57;;
17993;SDS011;9122;48.406;9.984;2023-04-30T01:43:00;5.23;;;4.73;;
17993;SDS011;9122;48.406;9.984;2023-04-30T01:52:16;6.07;;;5.47;;
17993;SDS011;9122;48.406;9.984;2023-04-30T01:55:11;5.73;;;5.10;;
17993;SDS011;9122;48.406;9.984;2023-04-30T01:58:02;5.70;;;5.20;;
17993;SDS011;9122;48.406;9.984;2023-04-30T02:00:49;5.53;;;5.03;;
17993;SDS011;9122;48.406;9.984;2023-04-30T02:03:34;5.90;;;5.33;;
17993;SDS011;9122;48.406;9.984;2023-04-30T02:06:19;5.30;;;4.80;;
17993;SDS011;9122;48.406;9.984;2023-04-30T02:09:04;5.07;;;4.67;;
17993;SDS011;9122;48.406;9.984;2023-04-30T02:11:49;6.53;;;5.73;;
17993;SDS011;9122;48.406;9.984;2023-04-30T02:14:34;5.80;;;5.30;;
17993;SDS011;9122;48.406;9.984;2023-04-30T02:17:18;5.40;;;5.00;;
17993;SDS011;9122;48.406;9.984;2023-04-30T02:20:03;5.80;;;5.30;;
17993;SDS011;9122;48.406;9.984;2023-04-30T02:22:48;5.53;;;5.13;;
17993;SDS011;9122;48.406;9.984;2023-04-30T02:25:33;6.17;;;5.60;;
17993;SDS011;9122;48.406;9.984;2023-04-30T02:28:21;7.23;;;6.30;;
17993;SDS011;9122;48.406;9.984;2023-04-30T02:31:05;6.63;;;6.13;;
17993;SDS011;9122;48.406;9.984;2023-04-30T02:33:50;6.17;;;5.57;;
17993;SDS011;9122;48.406;9.984;2023-04-30T02:36:35;5.53;;;4.97;;
17993;SDS011;9122;48.406;9.984;2023-04-30T02:39:20;5.77;;;5.27;;
17993;SDS011;9122;48.406;9.984;2023-04-30T02:42:04;6.60;;;5.53;;
17993;SDS011;9122;48.406;9.984;2023-04-30T02:44:50;6.23;;;5.63;;
17993;SDS011;9122;48.406;9.984;2023-04-30T02:47:34;5.47;;;5.07;;
17993;SDS011;9122;48.406;9.984;2023-04-30T02:50:19;6.87;;;6.10;;
17993;SDS011;9122;48.406;9.984;2023-04-30T02:53:03;6.30;;;5.70;;
17993;SDS011;9122;48.406;9.984;2023-04-30T02:55:48;7.43;;;6.60;;
17993;SDS011;9122;48.406;9.984;2023-04-30T02:58:32;6.43;;;5.80;;
17993;SDS011;9122;48.406;9.984;2023-04-30T03:01:17;6.60;;;6.10;;
17993;SDS011;9122;48.406;9.984;2023-04-30T03:04:01;7.00;;;6.27;;
17993;SDS011;9122;48.406;9.984;2023-04-30T03:06:48;7.03;;;6.43;;
17993;SDS011;9122;48.406;9.984;2023-04-30T03:09:32;7.63;;;6.53;;
17993;SDS011;9122;48.406;9.984;2023-04-30T03:12:17;6.80;;;6.20;;
17993;SDS011;9122;48.406;9.984;2023-04-30T03:15:01;6.97;;;6.30;;
17993;SDS011;9122;48.406;9.984;2023-04-30T03:17:46;7.13;;;6.50;;
17993;SDS011;9122;48.406;9.984;2023-04-30T03:20:30;8.13;;;6.73;;
17993;SDS011;9122;48.406;9.984;2023-04-30T03:23:14;7.63;;;6.97;;
17993;SDS011;9122;48.406;9.984;2023-04-30T03:25:59;8.33;;;7.53;;
17993;SDS011;9122;48.406;9.984;2023-04-30T03:28:43;7.93;;;7.13;;
17993;SDS011;9122;48.406;9.984;2023-04-30T03:31:28;7.43;;;6.40;;
17993;SDS011;9122;48.406;9.984;2023-04-30T03:34:12;8.43;;;7.63;;
17993;SDS011;9122;48.406;9.984;2023-04-30T03:36:56;8.10;;;7.37;;
17993;SDS011;9122;48.406;9.984;2023-04-30T03:39:40;8.03;;;7.23;;
17993;SDS011;9122;48.406;9.984;2023-04-30T03:42:24;8.90;;;8.00;;
17993;SDS011;9122;48.406;9.984;2023-04-30T03:45:09;8.00;;;7.30;;
17993;SDS011;9122;48.406;9.984;2023-04-30T03:47:56;8.70;;;7.70;;
17993;SDS011;9122;48.406;9.984;2023-04-30T03:50:43;8.70;;;7.90;;
17993;SDS011;9122;48.406;9.984;2023-04-30T03:53:32;7.70;;;7.07;;
17993;SDS011;9122;48.406;9.984;2023-04-30T03:56:16;10.27;;;7.90;;
17993;SDS011;9122;48.406;9.984;2023-04-30T03:59:01;7.23;;;6.57;;
17993;SDS011;9122;48.406;9.984;2023-04-30T04:01:45;9.07;;;7.83;;
17993;SDS011;9122;48.406;9.984;2023-04-30T04:04:30;8.87;;;7.87;;
17993;SDS011;9122;48.406;9.984;2023-04-30T04:07:15;8.57;;;7.83;;
17993;SDS011;9122;48.406;9.984;2023-04-30T04:09:59;8.27;;;7.53;;
17993;SDS011;9122;48.406;9.984;2023-04-30T04:12:44;8.03;;;7.30;;
17993;SDS011;9122;48.406;9.984;2023-04-30T04:15:29;8.70;;;7.87;;
17993;SDS011;9122;48.406;9.984;2023-04-30T04:18:13;9.37;;;8.47;;
17993;SDS011;9122;48.406;9.984;2023-04-30T04:20:58;8.13;;;7.40;;
17993;SDS011;9122;48.406;9.984;2023-04-30T04:23:43;8.93;;;8.00;;
17993;SDS011;9122;48.406;9.984;2023-04-30T04:26:27;8.17;;;7.47;;
17993;SDS011;9122;48.406;9.984;2023-04-30T04:29:12;9.40;;;8.07;;
17993;SDS011;9122;48.406;9.984;2023-04-30T04:31:57;9.57;;;8.60;;
17993;SDS011;9122;48.406;9.984;2023-04-30T04:34:44;9.20;;;8.30;;
17993;SDS011;9122;48.406;9.984;2023-04-30T04:37:28;10.30;;;9.20;;
17993;SDS011;9122;48.406;9.984;2023-04-30T04:40:13;10.60;;;9.50;;
17993;SDS011;9122;48.406;9.984;2023-04-30T04:42:58;9.73;;;8.80;;
17993;SDS011;9122;48.406;9.984;2023-04-30T04:45:42;9.23;;;8.33;;
17993;SDS011;9122;48.406;9.984;2023-04-30T04:48:27;11.10;;;8.60;;
17993;SDS011;9122;48.406;9.984;2023-04-30T04:51:11;8.33;;;7.50;;
17993;SDS011;9122;48.406;9.984;2023-04-30T04:53:55;8.57;;;7.77;;
17993;SDS011;9122;48.406;9.984;2023-04-30T04:56:39;9.80;;;8.80;;
17993;SDS011;9122;48.406;9.984;2023-04-30T04:59:24;9.40;;;8.50;;
17993;SDS011;9122;48.406;9.984;2023-04-30T05:02:09;9.30;;;8.27;;
17993;SDS011;9122;48.406;9.984;2023-04-30T05:04:53;9.70;;;8.30;;
17993;SDS011;9122;48.406;9.984;2023-04-30T05:07:38;9.43;;;8.13;;
17993;SDS011;9122;48.406;9.984;2023-04-30T05:10:22;9.90;;;8.90;;
17993;SDS011;9122;48.406;9.984;2023-04-30T05:13:06;8.80;;;7.90;;
17993;SDS011;9122;48.406;9.984;2023-04-30T05:15:52;9.73;;;8.50;;
17993;SDS011;9122;48.406;9.984;2023-04-30T05:18:36;9.37;;;8.50;;
17993;SDS011;9122;48.406;9.984;2023-04-30T05:21:21;9.37;;;8.40;;
17993;SDS011;9122;48.406;9.984;2023-04-30T05:24:06;9.57;;;8.57;;
17993;SDS011;9122;48.406;9.984;2023-04-30T05:26:50;9.23;;;8.33;;
17993;SDS011;9122;48.406;9.984;2023-04-30T05:29:34;9.73;;;8.80;;
17993;SDS011;9122;48.406;9.984;2023-04-30T05:32:19;8.77;;;7.93;;
17993;SDS011;9122;48.406;9.984;2023-04-30T05:35:07;9.27;;;8.37;;
17993;SDS011;9122;48.406;9.984;2023-04-30T05:37:52;9.37;;;8.13;;
17993;SDS011;9122;48.406;9.984;2023-04-30T05:40:37;9.07;;;8.00;;
17993;SDS011;9122;48.406;9.984;2023-04-30T05:43:21;9.57;;;8.67;;
17993;SDS011;9122;48.406;9.984;2023-04-30T05:46:06;9.40;;;8.60;;
17993;SDS011;9122;48.406;9.984;2023-04-30T05:48:50;10.27;;;9.27;;
17993;SDS011;9122;48.406;9.984;2023-04-30T05:51:35;9.10;;;8.20;;
17993;SDS011;9122;48.406;9.984;2023-04-30T05:54:19;9.07;;;8.17;;
17993;SDS011;9122;48.406;9.984;2023-04-30T05:57:04;11.00;;;8.70;;
17993;SDS011;9122;48.406;9.984;2023-04-30T05:59:48;9.10;;;8.20;;
17993;SDS011;9122;48.406;9.984;2023-04-30T06:02:33;9.67;;;8.67;;
17993;SDS011;9122;48.406;9.984;2023-04-30T06:05:17;10.30;;;9.13;;
17993;SDS011;9122;48.406;9.984;2023-04-30T06:08:01;9.47;;;8.57;;
17993;SDS011;9122;48.406;9.984;2023-04-30T06:10:46;8.57;;;7.77;;
17993;SDS011;9122;48.406;9.984;2023-04-30T06:13:31;9.90;;;8.93;;
17993;SDS011;9122;48.406;9.984;2023-04-30T06:16:15;10.23;;;9.27;;
17993;SDS011;9122;48.406;9.984;2023-04-30T06:19:00;10.13;;;9.00;;
17993;SDS011;9122;48.406;9.984;2023-04-30T06:21:44;9.87;;;8.97;;
17993;SDS011;9122;48.406;9.984;2023-04-30T06:24:29;9.23;;;8.33;;
17993;SDS011;9122;48.406;9.984;2023-04-30T06:27:13;9.10;;;8.27;;
17993;SDS011;9122;48.406;9.984;2023-04-30T06:29:57;10.07;;;9.17;;
17993;SDS011;9122;48.406;9.984;2023-04-30T06:32:43;10.73;;;9.63;;
17993;SDS011;9122;48.406;9.984;2023-04-30T06:35:28;11.03;;;9.73;;
17993;SDS011;9122;48.406;9.984;2023-04-30T06:38:12;10.10;;;9.20;;
17993;SDS011;9122;48.406;9.984;2023-04-30T06:40:57;10.00;;;9.10;;
17993;SDS011;9122;48.406;9.984;2023-04-30T06:43:44;9.63;;;8.73;;
17993;SDS011;9122;48.406;9.984;2023-04-30T06:46:28;11.37;;;10.27;;
17993;SDS011;9122;48.406;9.984;2023-04-30T06:49:13;9.63;;;8.73;;
17993;SDS011;9122;48.406;9.984;2023-04-30T06:51:58;9.27;;;8.40;;
17993;SDS011;9122;48.406;9.984;2023-04-30T06:54:42;10.20;;;9.27;;
17993;SDS011;9122;48.406;9.984;2023-04-30T06:57:27;10.17;;;9.17;;
17993;SDS011;9122;48.406;9.984;2023-04-30T07:00:11;10.60;;;9.40;;
17993;SDS011;9122;48.406;9.984;2023-04-30T07:02:58;9.90;;;9.00;;
17993;SDS011;9122;48.406;9.984;2023-04-30T07:05:46;10.37;;;9.37;;
17993;SDS011;9122;48.406;9.984;2023-04-30T07:08:30;10.10;;;9.10;;
17993;SDS011;9122;48.406;9.984;2023-04-30T07:11:15;10.70;;;9.67;;
17993;SDS011;9122;48.406;9.984;2023-04-30T07:13:59;9.97;;;9.03;;
17993;SDS011;9122;48.406;9.984;2023-04-30T07:16:44;12.03;;;9.53;;
17993;SDS011;9122;48.406;9.984;2023-04-30T07:19:28;10.00;;;9.03;;
17993;SDS011;9122;48.406;9.984;2023-04-30T07:22:12;9.90;;;9.10;;
17993;SDS011;9122;48.406;9.984;2023-04-30T07:24:56;10.13;;;9.13;;
17993;SDS011;9122;48.406;9.984;2023-04-30T07:27:41;10.33;;;9.40;;
17993;SDS011;9122;48.406;9.984;2023-04-30T07:30:26;10.57;;;9.53;;
17993;SDS011;9122;48.406;9.984;2023-04-30T07:33:11;9.63;;;8.77;;
17993;SDS011;9122;48.406;9.984;2023-04-30T07:35:55;9.47;;;8.57;;
17993;SDS011;9122;48.406;9.984;2023-04-30T07:38:41;9.57;;;8.67;;
17993;SDS011;9122;48.406;9.984;2023-04-30T07:41:25;10.03;;;9.03;;
17993;SDS011;9122;48.406;9.984;2023-04-30T07:44:09;9.53;;;8.60;;
17993;SDS011;9122;48.406;9.984;2023-04-30T07:46:54;8.80;;;8.10;;
17993;SDS011;9122;48.406;9.984;2023-04-30T07:49:39;8.43;;;7.73;;
17993;SDS011;9122;48.406;9.984;2023-04-30T07:52:24;9.33;;;8.53;;
17993;SDS011;9122;48.406;9.984;2023-04-30T07:55:09;9.60;;;8.70;;
17993;SDS011;9122;48.406;9.984;2023-04-30T07:57:53;9.87;;;8.93;;
17993;SDS011;9122;48.406;9.984;2023-04-30T08:00:37;9.07;;;8.27;;
17993;SDS011;9122;48.406;9.984;2023-04-30T08:03:21;9.67;;;8.83;;
17993;SDS011;9122;48.406;9.984;2023-04-30T08:06:06;8.90;;;8.20;;
17993;SDS011;9122;48.406;9.984;2023-04-30T08:08:51;8.43;;;7.70;;
17993;SDS011;9122;48.406;9.984;2023-04-30T08:11:35;8.97;;;8.07;;
17993;SDS011;9122;48.406;9.984;2023-04-30T08:14:20;8.97;;;8.03;;
17993;SDS011;9122;48.406;9.984;2023-04-30T08:17:04;8.90;;;8.00;;
17993;SDS011;9122;48.406;9.984;2023-04-30T08:19:49;8.47;;;7.67;;
17993;SDS011;9122;48.406;9.984;2023-04-30T08:22:35;8.23;;;7.53;;
17993;SDS011;9122;48.406;9.984;2023-04-30T08:25:19;8.80;;;8.00;;
17993;SDS011;9122;48.406;9.984;2023-04-30T08:28:05;8.23;;;7.53;;
17993;SDS011;9122;48.406;9.984;2023-04-30T08:30:49;9.50;;;8.53;;
17993;SDS011;9122;48.406;9.984;2023-04-30T08:33:34;8.93;;;8.13;;
17993;SDS011;9122;48.406;9.984;2023-04-30T08:36:18;9.20;;;8.30;;
17993;SDS011;9122;48.406;9.984;2023-04-30T08:39:03;9.10;;;8.27;;
17993;SDS011;9122;48.406;9.984;2023-04-30T08:41:50;9.13;;;8.23;;
17993;SDS011;9122;48.406;9.984;2023-04-30T08:44:44;8.93;;;8.03;;
17993;SDS011;9122;48.406;9.984;2023-04-30T08:47:30;7.60;;;6.87;;
17993;SDS011;9122;48.406;9.984;2023-04-30T08:50:14;9.47;;;7.30;;
17993;SDS011;9122;48.406;9.984;2023-04-30T08:52:59;6.93;;;6.33;;
17993;SDS011;9122;48.406;9.984;2023-04-30T08:55:44;7.63;;;7.00;;
17993;SDS011;9122;48.406;9.984;2023-04-30T08:58:29;8.63;;;7.00;;
17993;SDS011;9122;48.406;9.984;2023-04-30T09:01:14;6.73;;;6.07;;
17993;SDS011;9122;48.406;9.984;2023-04-30T09:03:59;7.43;;;6.77;;
17993;SDS011;9122;48.406;9.984;2023-04-30T09:06:45;6.90;;;6.30;;
17993;SDS011;9122;48.406;9.984;2023-04-30T09:09:36;7.17;;;6.47;;
17993;SDS011;9122;48.406;9.984;2023-04-30T09:12:21;11.97;;;6.00;;
17993;SDS011;9122;48.406;9.984;2023-04-30T09:15:06;6.73;;;6.20;;
17993;SDS011;9122;48.406;9.984;2023-04-30T09:21:08;6.40;;;5.87;;
17993;SDS011;9122;48.406;9.984;2023-04-30T09:23:54;7.20;;;5.77;;
17993;SDS011;9122;48.406;9.984;2023-04-30T09:26:44;5.77;;;5.37;;
17993;SDS011;9122;48.406;9.984;2023-04-30T09:29:36;5.67;;;5.17;;
17993;SDS011;9122;48.406;9.984;2023-04-30T09:32:24;5.70;;;5.27;;
17993;SDS011;9122;48.406;9.984;2023-04-30T09:35:27;5.80;;;4.77;;
17993;SDS011;9122;48.406;9.984;2023-04-30T09:38:24;5.87;;;5.37;;
17993;SDS011;9122;48.406;9.984;2023-04-30T09:41:26;6.37;;;5.83;;
17993;SDS011;9122;48.406;9.984;2023-04-30T09:44:27;6.20;;;5.60;;
17993;SDS011;9122;48.406;9.984;2023-04-30T09:47:14;5.07;;;4.67;;
17993;SDS011;9122;48.406;9.984;2023-04-30T09:50:00;5.67;;;5.23;;
17993;SDS011;9122;48.406;9.984;2023-04-30T09:52:52;5.20;;;4.70;;
17993;SDS011;9122;48.406;9.984;2023-04-30T09:55:36;4.83;;;4.43;;
17993;SDS011;9122;48.406;9.984;2023-04-30T09:58:21;6.23;;;5.10;;
17993;SDS011;9122;48.406;9.984;2023-04-30T10:01:07;5.30;;;4.80;;
17993;SDS011;9122;48.406;9.984;2023-04-30T10:03:53;5.13;;;4.33;;
17993;SDS011;9122;48.406;9.984;2023-04-30T10:06:39;5.40;;;4.90;;
17993;SDS011;9122;48.406;9.984;2023-04-30T10:09:28;5.30;;;4.80;;
17993;SDS011;9122;48.406;9.984;2023-04-30T10:12:23;5.23;;;4.77;;
17993;SDS011;9122;48.406;9.984;2023-04-30T10:15:25;3.93;;;3.67;;
17993;SDS011;9122;48.406;9.984;2023-04-30T10:18:22;4.40;;;4.10;;
17993;SDS011;9122;48.406;9.984;2023-04-30T10:21:13;4.63;;;4.23;;
17993;SDS011;9122;48.406;9.984;2023-04-30T10:24:01;4.93;;;4.53;;
17993;SDS011;9122;48.406;9.984;2023-04-30T10:26:46;4.50;;;4.10;;
17993;SDS011;9122;48.406;9.984;2023-04-30T10:29:32;4.70;;;4.40;;
17993;SDS011;9122;48.406;9.984;2023-04-30T10:32:16;4.67;;;4.27;;
17993;SDS011;9122;48.406;9.984;2023-04-30T10:37:53;4.80;;;4.40;;
17993;SDS011;9122;48.406;9.984;2023-04-30T10:40:44;4.97;;;4.57;;
17993;SDS011;9122;48.406;9.984;2023-04-30T10:43:32;5.43;;;5.03;;
17993;SDS011;9122;48.406;9.984;2023-04-30T10:46:22;4.63;;;4.33;;
17993;SDS011;9122;48.406;9.984;2023-04-30T10:49:07;4.67;;;4.27;;
17993;SDS011;9122;48.406;9.984;2023-04-30T10:51:51;4.90;;;4.50;;
17993;SDS011;9122;48.406;9.984;2023-04-30T10:54:37;5.37;;;4.30;;
17993;SDS011;9122;48.406;9.984;2023-04-30T10:57:24;6.23;;;4.60;;
17993;SDS011;9122;48.406;9.984;2023-04-30T11:00:16;4.40;;;4.10;;
17993;SDS011;9122;48.406;9.984;2023-04-30T11:03:02;4.30;;;4.00;;
17993;SDS011;9122;48.406;9.984;2023-04-30T11:05:46;5.07;;;4.23;;
17993;SDS011;9122;48.406;9.984;2023-04-30T11:08:32;5.30;;;4.57;;
17993;SDS011;9122;48.406;9.984;2023-04-30T11:11:20;4.47;;;4.07;;
17993;SDS011;9122;48.406;9.984;2023-04-30T11:14:06;4.50;;;4.20;;
17993;SDS011;9122;48.406;9.984;2023-04-30T11:16:51;4.27;;;3.97;;
17993;SDS011;9122;48.406;9.984;2023-04-30T11:19:41;4.47;;;4.17;;
17993;SDS011;9122;48.406;9.984;2023-04-30T11:22:31;4.37;;;4.07;;
17993;SDS011;9122;48.406;9.984;2023-04-30T11:25:21;4.43;;;4.13;;
17993;SDS011;9122;48.406;9.984;2023-04-30T11:28:06;4.60;;;4.27;;
17993;SDS011;9122;48.406;9.984;2023-04-30T11:30:57;4.63;;;4.33;;
17993;SDS011;9122;48.406;9.984;2023-04-30T11:33:42;3.83;;;3.63;;
17993;SDS011;9122;48.406;9.984;2023-04-30T11:36:26;5.37;;;4.47;;
17993;SDS011;9122;48.406;9.984;2023-04-30T11:39:15;5.13;;;4.23;;
17993;SDS011;9122;48.406;9.984;2023-04-30T11:42:00;4.03;;;3.77;;
17993;SDS011;9122;48.406;9.984;2023-04-30T11:44:45;3.80;;;3.60;;
17993;SDS011;9122;48.406;9.984;2023-04-30T11:47:37;4.33;;;3.97;;
17993;SDS011;9122;48.406;9.984;2023-04-30T11:50:26;4.20;;;3.27;;
17993;SDS011;9122;48.406;9.984;2023-04-30T11:53:15;3.70;;;3.40;;
17993;SDS011;9122;48.406;9.984;2023-04-30T11:56:03;4.17;;;3.73;;
17993;SDS011;9122;48.406;9.984;2023-04-30T11:58:48;3.97;;;3.67;;
17993;SDS011;9122;48.406;9.984;2023-04-30T12:01:34;4.77;;;3.93;;
17993;SDS011;9122;48.406;9.984;2023-04-30T12:04:19;3.50;;;3.27;;
17993;SDS011;9122;48.406;9.984;2023-04-30T12:07:06;3.83;;;3.53;;
17993;SDS011;9122;48.406;9.984;2023-04-30T12:09:55;3.37;;;3.10;;
17993;SDS011;9122;48.406;9.984;2023-04-30T12:12:41;3.17;;;2.97;;
17993;SDS011;9122;48.406;9.984;2023-04-30T12:15:26;3.80;;;3.60;;
17993;SDS011;9122;48.406;9.984;2023-04-30T12:18:12;3.47;;;3.27;;
17993;SDS011;9122;48.406;9.984;2023-04-30T12:20:57;3.63;;;3.43;;
17993;SDS011;9122;48.406;9.984;2023-04-30T12:23:42;3.77;;;3.30;;
17993;SDS011;9122;48.406;9.984;2023-04-30T12:26:34;3.50;;;3.30;;
17993;SDS011;9122;48.406;9.984;2023-04-30T12:29:21;3.60;;;3.37;;
17993;SDS011;9122;48.406;9.984;2023-04-30T12:32:07;8.13;;;7.43;;
17993;SDS011;9122;48.406;9.984;2023-04-30T12:34:56;5.03;;;4.63;;
17993;SDS011;9122;48.406;9.984;2023-04-30T12:37:45;4.47;;;4.17;;
17993;SDS011;9122;48.406;9.984;2023-04-30T12:40:34;5.33;;;3.77;;
17993;SDS011;9122;48.406;9.984;2023-04-30T12:43:19;5.60;;;4.13;;
17993;SDS011;9122;48.406;9.984;2023-04-30T12:46:04;4.27;;;3.93;;
17993;SDS011;9122;48.406;9.984;2023-04-30T12:48:48;4.37;;;4.00;;
17993;SDS011;9122;48.406;9.984;2023-04-30T12:51:36;4.40;;;4.10;;
17993;SDS011;9122;48.406;9.984;2023-04-30T12:54:24;4.80;;;4.50;;
17993;SDS011;9122;48.406;9.984;2023-04-30T12:57:12;4.33;;;3.87;;
17993;SDS011;9122;48.406;9.984;2023-04-30T12:59:58;4.40;;;4.10;;
17993;SDS011;9122;48.406;9.984;2023-04-30T13:02:44;4.83;;;4.43;;
17993;SDS011;9122;48.406;9.984;2023-04-30T13:05:29;4.53;;;4.23;;
17993;SDS011;9122;48.406;9.984;2023-04-30T13:08:14;5.50;;;5.00;;
17993;SDS011;9122;48.406;9.984;2023-04-30T13:10:59;4.97;;;4.67;;
17993;SDS011;9122;48.406;9.984;2023-04-30T13:13:43;4.40;;;4.00;;
17993;SDS011;9122;48.406;9.984;2023-04-30T13:16:28;4.30;;;4.00;;
17993;SDS011;9122;48.406;9.984;2023-04-30T13:19:13;4.90;;;4.50;;
17993;SDS011;9122;48.406;9.984;2023-04-30T13:21:58;4.83;;;4.53;;
17993;SDS011;9122;48.406;9.984;2023-04-30T13:24:44;4.07;;;3.77;;
17993;SDS011;9122;48.406;9.984;2023-04-30T13:27:29;4.80;;;4.37;;
17993;SDS011;9122;48.406;9.984;2023-04-30T13:30:13;4.33;;;4.03;;
17993;SDS011;9122;48.406;9.984;2023-04-30T13:32:58;4.33;;;4.03;;
17993;SDS011;9122;48.406;9.984;2023-04-30T13:35:43;3.93;;;3.63;;
17993;SDS011;9122;48.406;9.984;2023-04-30T13:38:29;4.40;;;4.10;;
17993;SDS011;9122;48.406;9.984;2023-04-30T13:41:13;4.20;;;3.90;;
17993;SDS011;9122;48.406;9.984;2023-04-30T13:43:58;4.10;;;3.63;;
17993;SDS011;9122;48.406;9.984;2023-04-30T13:46:43;4.37;;;3.97;;
17993;SDS011;9122;48.406;9.984;2023-04-30T13:49:27;3.80;;;3.50;;
17993;SDS011;9122;48.406;9.984;2023-04-30T13:52:11;4.00;;;3.70;;
17993;SDS011;9122;48.406;9.984;2023-04-30T13:54:55;4.30;;;4.00;;
17993;SDS011;9122;48.406;9.984;2023-04-30T13:57:40;3.70;;;3.50;;
17993;SDS011;9122;48.406;9.984;2023-04-30T14:00:25;3.77;;;3.57;;
17993;SDS011;9122;48.406;9.984;2023-04-30T14:03:09;4.07;;;3.60;;
17993;SDS011;9122;48.406;9.984;2023-04-30T14:05:54;3.87;;;3.57;;
17993;SDS011;9122;48.406;9.984;2023-04-30T14:08:40;3.73;;;3.53;;
17993;SDS011;9122;48.406;9.984;2023-04-30T14:11:25;4.47;;;4.17;;
17993;SDS011;9122;48.406;9.984;2023-04-30T14:14:10;4.40;;;4.00;;
17993;SDS011;9122;48.406;9.984;2023-04-30T14:16:55;4.83;;;4.23;;
17993;SDS011;9122;48.406;9.984;2023-04-30T14:19:40;3.80;;;3.50;;
17993;SDS011;9122;48.406;9.984;2023-04-30T14:22:24;3.77;;;3.50;;
17993;SDS011;9122;48.406;9.984;2023-04-30T14:25:09;4.40;;;3.97;;
17993;SDS011;9122;48.406;9.984;2023-04-30T14:27:54;4.17;;;3.87;;
17993;SDS011;9122;48.406;9.984;2023-04-30T14:30:39;4.10;;;3.80;;
17993;SDS011;9122;48.406;9.984;2023-04-30T14:33:23;3.40;;;3.20;;
17993;SDS011;9122;48.406;9.984;2023-04-30T14:36:08;3.43;;;3.23;;
17993;SDS011;9122;48.406;9.984;2023-04-30T14:38:53;3.47;;;3.27;;
17993;SDS011;9122;48.406;9.984;2023-04-30T14:41:37;3.27;;;3.07;;
17993;SDS011;9122;48.406;9.984;2023-04-30T14:44:22;3.87;;;3.57;;
17993;SDS011;9122;48.406;9.984;2023-04-30T14:47:12;4.10;;;3.80;;
17993;SDS011;9122;48.406;9.984;2023-04-30T14:49:58;4.90;;;3.17;;
17993;SDS011;9122;48.406;9.984;2023-04-30T14:52:44;3.70;;;3.40;;
17993;SDS011;9122;48.406;9.984;2023-04-30T14:55:30;3.60;;;3.40;;
17993;SDS011;9122;48.406;9.984;2023-04-30T14:58:14;3.47;;;3.27;;
17993;SDS011;9122;48.406;9.984;2023-04-30T15:00:59;4.87;;;3.13;;
17993;SDS011;9122;48.406;9.984;2023-04-30T15:03:44;3.60;;;3.27;;
17993;SDS011;9122;48.406;9.984;2023-04-30T15:06:29;3.30;;;3.10;;
17993;SDS011;9122;48.406;9.984;2023-04-30T15:09:13;3.17;;;2.97;;
17993;SDS011;9122;48.406;9.984;2023-04-30T15:11:58;3.33;;;3.13;;
17993;SDS011;9122;48.406;9.984;2023-04-30T15:14:43;2.90;;;2.70;;
17993;SDS011;9122;48.406;9.984;2023-04-30T15:17:27;2.93;;;2.73;;
17993;SDS011;9122;48.406;9.984;2023-04-30T15:20:12;3.37;;;3.17;;
17993;SDS011;9122;48.406;9.984;2023-04-30T15:22:56;3.50;;;3.20;;
17993;SDS011;9122;48.406;9.984;2023-04-30T15:25:41;2.77;;;2.57;;
17993;SDS011;9122;48.406;9.984;2023-04-30T15:28:26;3.33;;;3.13;;
17993;SDS011;9122;48.406;9.984;2023-04-30T15:31:11;2.87;;;2.67;;
17993;SDS011;9122;48.406;9.984;2023-04-30T15:33:56;3.90;;;3.60;;
17993;SDS011;9122;48.406;9.984;2023-04-30T15:36:40;3.87;;;3.57;;
17993;SDS011;9122;48.406;9.984;2023-04-30T15:39:25;3.50;;;3.30;;
17993;SDS011;9122;48.406;9.984;2023-04-30T15:42:09;3.30;;;3.10;;
17993;SDS011;9122;48.406;9.984;2023-04-30T15:44:54;3.30;;;3.10;;
17993;SDS011;9122;48.406;9.984;2023-04-30T15:47:39;3.60;;;3.33;;
17993;SDS011;9122;48.406;9.984;2023-04-30T15:50:23;3.43;;;3.17;;
17993;SDS011;9122;48.406;9.984;2023-04-30T15:53:08;3.13;;;2.80;;
17993;SDS011;9122;48.406;9.984;2023-04-30T15:55:52;3.30;;;3.10;;
17993;SDS011;9122;48.406;9.984;2023-04-30T15:58:37;2.90;;;2.70;;
17993;SDS011;9122;48.406;9.984;2023-04-30T16:01:22;3.00;;;2.80;;
17993;SDS011;9122;48.406;9.984;2023-04-30T16:04:07;3.13;;;2.93;;
17993;SDS011;9122;48.406;9.984;2023-04-30T16:06:51;2.70;;;2.50;;
17993;SDS011;9122;48.406;9.984;2023-04-30T16:09:36;3.37;;;3.10;;
17993;SDS011;9122;48.406;9.984;2023-04-30T16:12:21;3.30;;;3.10;;
17993;SDS011;9122;48.406;9.984;2023-04-30T16:15:05;2.57;;;2.37;;
17993;SDS011;9122;48.406;9.984;2023-04-30T16:17:50;3.33;;;3.03;;
17993;SDS011;9122;48.406;9.984;2023-04-30T16:20:35;3.03;;;2.83;;
17993;SDS011;9122;48.406;9.984;2023-04-30T16:23:20;2.90;;;2.80;;
17993;SDS011;9122;48.406;9.984;2023-04-30T16:26:05;2.90;;;2.70;;
17993;SDS011;9122;48.406;9.984;2023-04-30T16:28:49;3.43;;;3.13;;
17993;SDS011;9122;48.406;9.984;2023-04-30T16:31:34;3.40;;;2.97;;
17993;SDS011;9122;48.406;9.984;2023-04-30T16:34:18;3.00;;;2.80;;
17993;SDS011;9122;48.406;9.984;2023-04-30T16:37:03;3.93;;;3.33;;
17993;SDS011;9122;48.406;9.984;2023-04-30T16:39:48;3.03;;;2.80;;
17993;SDS011;9122;48.406;9.984;2023-04-30T16:42:32;3.03;;;2.83;;
17993;SDS011;9122;48.406;9.984;2023-04-30T16:45:17;2.77;;;2.57;;
17993;SDS011;9122;48.406;9.984;2023-04-30T16:48:01;3.30;;;2.90;;
17993;SDS011;9122;48.406;9.984;2023-04-30T16:50:46;3.00;;;2.80;;
17993;SDS011;9122;48.406;9.984;2023-04-30T16:53:31;3.10;;;2.70;;
17993;SDS011;9122;48.406;9.984;2023-04-30T16:56:15;3.23;;;2.93;;
17993;SDS011;9122;48.406;9.984;2023-04-30T16:58:59;3.63;;;3.43;;
17993;SDS011;9122;48.406;9.984;2023-04-30T17:01:43;3.03;;;2.80;;
17993;SDS011;9122;48.406;9.984;2023-04-30T17:04:29;3.50;;;3.30;;
17993;SDS011;9122;48.406;9.984;2023-04-30T17:07:13;2.90;;;2.70;;
17993;SDS011;9122;48.406;9.984;2023-04-30T17:09:58;4.27;;;3.87;;
17993;SDS011;9122;48.406;9.984;2023-04-30T17:12:42;4.77;;;3.70;;
17993;SDS011;9122;48.406;9.984;2023-04-30T17:15:27;3.80;;;3.47;;
17993;SDS011;9122;48.406;9.984;2023-04-30T17:18:12;3.50;;;3.30;;
17993;SDS011;9122;48.406;9.984;2023-04-30T17:20:57;4.07;;;3.77;;
17993;SDS011;9122;48.406;9.984;2023-04-30T17:23:42;4.07;;;3.43;;